Time;durP1;ratioP1;P1;durP2;ratioP2;P2;SDS_P1;SDS_P2;PMS_P1;PMS_P2;Temp;Humidity;BMP_temperature;BMP_pressure;BME280_temperature;BME280_humidity;BME280_pressure;Samples;Min_cycle;Max_cycle;Signal;HPM_P1;HPM_P2
2022/10/26 00:02:15;;;;;;;14.90;10.02;;;9.30;99.90;;;;;;5047634;28;20771;-72
2022/10/26 00:04:41;;;;;;;24.13;10.75;;;9.30;99.90;;;;;;5046004;28;20627;-72
2022/10/26 00:07:06;;;;;;;19.73;11.35;;;9.20;99.90;;;;;;5029388;28;20067;-72
2022/10/26 00:09:32;;;;;;;26.63;12.23;;;9.30;99.90;;;;;;5041719;28;20049;-72
2022/10/26 00:11:58;;;;;;;25.77;12.20;;;9.10;99.90;;;;;;5063275;28;20053;-72
2022/10/26 00:14:23;;;;;;;25.23;13.55;;;9.30;99.90;;;;;;5031615;28;20048;-71
2022/10/26 00:16:49;;;;;;;27.17;13.55;;;9.20;99.90;;;;;;5030992;28;20059;-72
2022/10/26 00:19:15;;;;;;;30.80;13.93;;;9.40;99.90;;;;;;5045345;28;20052;-71
2022/10/26 00:21:40;;;;;;;23.15;13.57;;;9.30;99.90;;;;;;5046433;28;20048;-72
2022/10/26 00:24:06;;;;;;;23.92;14.73;;;9.20;99.90;;;;;;5045782;28;20049;-72
2022/10/26 00:26:31;;;;;;;25.08;14.30;;;9.30;99.90;;;;;;5033570;28;20053;-71
2022/10/26 00:28:57;;;;;;;28.05;13.80;;;9.30;99.90;;;;;;5044504;28;20069;-72
2022/10/26 00:31:23;;;;;;;34.35;14.48;;;9.40;99.90;;;;;;5047541;28;20131;-72
2022/10/26 00:33:56;;;;;;;23.67;13.52;;;9.20;99.90;;;;;;5046686;28;20533;-72
2022/10/26 00:36:23;;;;;;;23.63;13.55;;;9.30;99.90;;;;;;5033945;28;20037;-72
2022/10/26 00:38:54;;;;;;;28.97;14.40;;;9.20;99.90;;;;;;5043995;28;20897;-72
2022/10/26 00:41:31;;;;;;;31.52;15.00;;;9.30;99.90;;;;;;5044721;28;20073;-72
2022/10/26 00:43:58;;;;;;;25.85;14.13;;;9.10;99.90;;;;;;5027687;28;20045;-71
2022/10/26 00:46:34;;;;;;;29.73;15.13;;;9.30;99.90;;;;;;5034225;28;20049;-72
2022/10/26 00:49:19;;;;;;;29.60;15.20;;;9.30;99.90;;;;;;5042530;28;20053;-71
2022/10/26 00:51:49;;;;;;;29.70;14.85;;;9.30;99.90;;;;;;5045661;28;20060;-72
2022/10/26 00:54:17;;;;;;;28.52;15.50;;;9.30;99.90;;;;;;5044755;28;20853;-72
2022/10/26 00:56:50;;;;;;;33.00;14.90;;;9.40;99.90;;;;;;5030732;28;20178;-71
2022/10/26 00:59:16;;;;;;;22.55;13.63;;;9.30;99.90;;;;;;5045080;28;20891;-71
2022/10/26 01:01:45;;;;;;;26.63;14.82;;;9.20;99.90;;;;;;5044747;28;20083;-71
2022/10/26 01:04:13;;;;;;;24.73;14.88;;;9.40;99.90;;;;;;5044361;28;20451;-71
2022/10/26 01:06:41;;;;;;;23.65;14.02;;;9.30;99.90;;;;;;5031992;28;20119;-71
2022/10/26 01:09:07;;;;;;;34.92;14.88;;;9.30;99.90;;;;;;5043608;28;20496;-72
2022/10/26 01:11:32;;;;;;;27.40;14.45;;;9.30;99.90;;;;;;5045214;28;20044;-71
2022/10/26 01:13:59;;;;;;;29.47;14.23;;;9.20;99.90;;;;;;5030082;28;20053;-72
2022/10/26 01:16:51;;;;;;;28.80;14.53;;;9.10;99.90;;;;;;5038859;28;20416;-72
2022/10/26 01:19:23;;;;;;;27.88;15.27;;;9.10;99.90;;;;;;5049813;28;20420;-71
2022/10/26 01:22:19;;;;;;;24.95;14.20;;;9.10;99.90;;;;;;5049282;28;20052;-71
2022/10/26 01:24:56;;;;;;;28.73;15.45;;;9.10;99.90;;;;;;5050493;28;20061;-71
2022/10/26 01:27:43;;;;;;;27.83;15.90;;;9.00;99.90;;;;;;5034990;28;20115;-71
2022/10/26 01:30:31;;;;;;;28.77;15.30;;;9.20;99.90;;;;;;5050185;28;20057;-72
2022/10/26 01:33:10;;;;;;;32.63;16.27;;;9.20;99.90;;;;;;5046225;28;20038;-71
2022/10/26 01:35:54;;;;;;;29.67;16.77;;;9.10;99.90;;;;;;5050331;28;20661;-71
2022/10/26 01:38:41;;;;;;;32.30;15.90;;;9.10;99.90;;;;;;5017432;28;20049;-71
2022/10/26 01:41:16;;;;;;;33.83;16.43;;;9.20;99.90;;;;;;5046818;28;20049;-71
2022/10/26 01:44:00;;;;;;;32.22;16.67;;;9.10;99.90;;;;;;5046938;28;20072;-71
2022/10/26 01:46:27;;;;;;;33.07;16.67;;;9.00;99.90;;;;;;5038266;28;20474;-71
2022/10/26 01:49:00;;;;;;;26.17;15.93;;;9.00;99.90;;;;;;5045976;28;20053;-71
2022/10/26 01:51:27;;;;;;;28.77;16.47;;;9.10;99.90;;;;;;5047464;28;20068;-71
2022/10/26 01:53:53;;;;;;;28.17;16.10;;;8.90;99.90;;;;;;5051291;28;20045;-71
2022/10/26 01:56:22;;;;;;;30.17;16.13;;;9.00;99.90;;;;;;5038795;28;20048;-72
2022/10/26 01:59:02;;;;;;;28.90;15.30;;;8.90;99.90;;;;;;5044146;28;20093;-71
2022/10/26 02:01:46;;;;;;;28.50;16.20;;;8.90;99.90;;;;;;5049617;28;20052;-71
2022/10/26 02:04:40;;;;;;;33.20;16.17;;;8.80;99.90;;;;;;5049544;28;20045;-71
2022/10/26 02:07:26;;;;;;;26.20;14.80;;;8.70;99.90;;;;;;5033758;28;20076;-72
2022/10/26 02:10:15;;;;;;;29.98;16.33;;;8.60;99.90;;;;;;5041559;28;20119;-71
2022/10/26 02:12:50;;;;;;;29.40;14.80;;;8.60;99.90;;;;;;5046292;28;20053;-71
2022/10/26 02:15:47;;;;;;;32.63;14.90;;;8.60;99.90;;;;;;5054874;28;20049;-72
2022/10/26 02:18:25;;;;;;;34.33;16.10;;;8.40;99.90;;;;;;5034112;28;20122;-70
2022/10/26 02:20:56;;;;;;;37.30;16.57;;;8.40;99.90;;;;;;5044838;28;20049;-71
2022/10/26 02:23:25;;;;;;;29.48;15.13;;;8.40;99.90;;;;;;5045827;28;20049;-72
2022/10/26 02:25:55;;;;;;;32.77;16.47;;;8.40;99.90;;;;;;5028372;28;20052;-71
2022/10/26 02:28:35;;;;;;;16.50;11.27;;;8.40;99.90;;;;;;5029247;28;20041;-71
2022/10/26 02:31:02;;;;;;;26.20;14.87;;;8.30;99.90;;;;;;5050469;28;20526;-71
2022/10/26 02:33:32;;;;;;;32.83;16.27;;;8.40;99.90;;;;;;5046136;28;20398;-71
2022/10/26 02:36:01;;;;;;;23.90;14.70;;;8.30;99.90;;;;;;5047552;28;20049;-71
2022/10/26 02:38:29;;;;;;;23.63;14.77;;;8.30;99.90;;;;;;5031942;28;20085;-72
2022/10/26 02:40:55;;;;;;;24.43;14.60;;;8.20;99.90;;;;;;5048926;28;20142;-71
2022/10/26 02:43:23;;;;;;;26.87;14.77;;;8.20;99.90;;;;;;5026046;28;20077;-72
2022/10/26 02:45:57;;;;;;;33.43;16.07;;;8.20;99.90;;;;;;5048735;28;20503;-71
2022/10/26 02:48:23;;;;;;;27.97;14.77;;;8.10;99.90;;;;;;5032856;28;20048;-71
2022/10/26 02:51:08;;;;;;;25.57;14.53;;;8.10;99.90;;;;;;5048195;28;20053;-71
2022/10/26 02:53:45;;;;;;;22.97;13.77;;;8.10;99.90;;;;;;5046595;28;20072;-71
2022/10/26 02:56:19;;;;;;;27.30;14.63;;;8.10;99.90;;;;;;5043567;28;20052;-72
2022/10/26 02:58:50;;;;;;;29.63;14.50;;;8.10;99.90;;;;;;5042298;28;20064;-72
2022/10/26 03:01:16;;;;;;;24.40;13.90;;;8.10;99.90;;;;;;5048381;28;20045;-71
2022/10/26 03:03:42;;;;;;;24.23;13.50;;;8.10;99.90;;;;;;5047474;28;20507;-71
2022/10/26 03:06:08;;;;;;;26.07;14.23;;;8.10;99.90;;;;;;5031875;28;20425;-71
2022/10/26 03:08:33;;;;;;;27.63;15.97;;;8.10;99.90;;;;;;5033441;28;20052;-71
2022/10/26 03:10:59;;;;;;;35.10;15.80;;;8.00;99.90;;;;;;5048059;28;20056;-71
2022/10/26 03:13:25;;;;;;;32.30;15.90;;;8.00;99.90;;;;;;5046774;28;20065;-71
2022/10/26 03:15:55;;;;;;;31.87;14.60;;;8.00;99.90;;;;;;5048393;28;20105;-72
2022/10/26 03:18:21;;;;;;;29.30;14.27;;;7.90;99.90;;;;;;5032276;28;20052;-71
2022/10/26 03:20:46;;;;;;;28.97;14.67;;;7.90;99.90;;;;;;5048591;28;20045;-71
2022/10/26 03:23:12;;;;;;;21.57;13.30;;;7.90;99.90;;;;;;5047786;28;20048;-70
2022/10/26 03:25:38;;;;;;;26.17;14.00;;;7.90;99.90;;;;;;5046719;28;20059;-71
2022/10/26 03:28:04;;;;;;;26.00;13.80;;;7.80;99.90;;;;;;5029803;28;20102;-72
2022/10/26 03:30:30;;;;;;;26.97;13.30;;;7.80;99.90;;;;;;5048338;28;20170;-71
2022/10/26 03:32:56;;;;;;;19.80;12.53;;;7.70;99.90;;;;;;5045566;28;20565;-71
2022/10/26 03:35:22;;;;;;;26.23;13.93;;;7.80;99.90;;;;;;5047501;28;20162;-71
2022/10/26 03:37:48;;;;;;;19.13;12.53;;;7.80;99.90;;;;;;5032547;28;20055;-71
2022/10/26 03:40:14;;;;;;;22.53;12.50;;;7.70;99.90;;;;;;5046241;28;20437;-71
2022/10/26 03:42:40;;;;;;;19.30;11.80;;;7.70;99.90;;;;;;5047147;28;20076;-71
2022/10/26 03:45:07;;;;;;;21.40;13.37;;;7.70;99.90;;;;;;5047341;28;20652;-71
2022/10/26 03:47:32;;;;;;;21.40;12.97;;;7.60;99.90;;;;;;5031313;28;20139;-71
2022/10/26 03:49:58;;;;;;;26.73;14.07;;;7.60;99.90;;;;;;5047530;28;20124;-71
2022/10/26 03:52:24;;;;;;;22.03;12.77;;;7.70;99.90;;;;;;5045988;28;20048;-71
2022/10/26 03:54:50;;;;;;;22.53;14.70;;;7.70;99.90;;;;;;5047853;28;20086;-71
2022/10/26 03:57:16;;;;;;;35.70;17.03;;;7.70;99.90;;;;;;5048040;28;20152;-71
2022/10/26 03:59:42;;;;;;;31.97;16.47;;;7.90;99.90;;;;;;5049175;28;20127;-71
2022/10/26 04:02:08;;;;;;;42.20;17.97;;;8.00;99.90;;;;;;5048750;28;20470;-71
2022/10/26 04:04:33;;;;;;;32.07;17.27;;;8.00;99.90;;;;;;5049201;28;20053;-71
2022/10/26 04:06:59;;;;;;;38.57;18.50;;;8.10;99.90;;;;;;5031010;28;20045;-71
2022/10/26 04:09:25;;;;;;;32.23;17.53;;;8.10;99.90;;;;;;5038706;28;20048;-71
2022/10/26 04:11:50;;;;;;;37.10;18.23;;;8.20;99.90;;;;;;5044906;28;20052;-71
2022/10/26 04:14:16;;;;;;;33.27;18.30;;;8.10;99.90;;;;;;5043003;28;20044;-71
2022/10/26 04:16:42;;;;;;;41.03;19.00;;;8.10;99.90;;;;;;5031209;28;20600;-71
2022/10/26 04:19:07;;;;;;;35.90;18.90;;;8.20;99.90;;;;;;5040245;28;20566;-71
2022/10/26 04:21:34;;;;;;;33.40;18.87;;;8.10;99.90;;;;;;5040436;28;20056;-71
2022/10/26 04:24:00;;;;;;;35.60;19.53;;;8.20;99.90;;;;;;5041646;28;20076;-71
2022/10/26 04:26:26;;;;;;;36.30;19.10;;;8.30;99.90;;;;;;5030937;28;20068;-71
2022/10/26 04:28:52;;;;;;;37.77;20.67;;;8.40;99.90;;;;;;5038900;28;20550;-71
2022/10/26 04:31:18;;;;;;;41.17;20.20;;;8.30;99.90;;;;;;5043974;28;20053;-71
2022/10/26 04:33:43;;;;;;;36.63;19.70;;;8.50;99.90;;;;;;5061049;28;20143;-71
2022/10/26 04:36:10;;;;;;;38.63;19.83;;;8.40;99.90;;;;;;5040167;28;20072;-72
2022/10/26 04:38:35;;;;;;;38.47;21.67;;;8.40;99.90;;;;;;5040749;28;20128;-71
2022/10/26 04:41:01;;;;;;;41.23;21.33;;;8.40;99.90;;;;;;5048395;28;20464;-72
2022/10/26 04:43:27;;;;;;;39.43;19.43;;;8.50;99.90;;;;;;5045624;28;20070;-71
2022/10/26 04:45:59;;;;;;;39.83;19.40;;;8.50;99.90;;;;;;5047182;28;20091;-71
2022/10/26 04:48:24;;;;;;;41.37;20.23;;;8.40;99.90;;;;;;5051598;28;20121;-71
2022/10/26 04:50:50;;;;;;;38.43;20.40;;;8.60;99.90;;;;;;5050838;28;20045;-71
2022/10/26 04:53:16;;;;;;;42.37;20.67;;;8.60;99.90;;;;;;5050548;28;20052;-71
2022/10/26 04:55:41;;;;;;;40.27;20.33;;;8.60;99.90;;;;;;5050541;28;20163;-71
2022/10/26 04:58:07;;;;;;;39.13;20.63;;;8.80;99.90;;;;;;5035060;28;20041;-71
2022/10/26 05:00:33;;;;;;;38.67;21.87;;;8.70;99.90;;;;;;5047496;28;20041;-71
2022/10/26 05:03:04;;;;;;;40.17;20.87;;;8.80;99.90;;;;;;5050132;28;20448;-71
2022/10/26 05:05:32;;;;;;;42.33;21.52;;;8.80;99.90;;;;;;5049282;28;20064;-71
2022/10/26 05:07:57;;;;;;;42.73;22.77;;;8.80;99.90;;;;;;5033905;28;20064;-72
2022/10/26 05:10:24;;;;;;;36.43;20.97;;;8.90;99.90;;;;;;5048925;28;20248;-71
2022/10/26 05:12:54;;;;;;;46.33;23.93;;;9.00;99.90;;;;;;5047421;28;20037;-72
2022/10/26 05:15:20;;;;;;;44.20;23.90;;;8.90;99.90;;;;;;5033956;28;20165;-71
2022/10/26 05:17:46;;;;;;;46.83;23.77;;;9.00;99.90;;;;;;5047497;28;20535;-71
2022/10/26 05:20:13;;;;;;;44.27;24.43;;;9.10;99.90;;;;;;5048581;28;20142;-71
2022/10/26 05:22:39;;;;;;;45.33;25.63;;;9.10;99.90;;;;;;5049378;28;20363;-71
2022/10/26 05:25:06;;;;;;;45.17;24.87;;;9.10;99.90;;;;;;5050618;28;20503;-71
2022/10/26 05:27:31;;;;;;;43.60;25.20;;;9.10;99.90;;;;;;5032618;28;20060;-72
2022/10/26 05:29:57;;;;;;;50.63;26.50;;;9.10;99.90;;;;;;5033015;28;20045;-71
2022/10/26 05:32:22;;;;;;;45.27;25.63;;;9.20;99.90;;;;;;5047414;28;20118;-72
2022/10/26 05:34:48;;;;;;;42.80;25.50;;;9.20;99.90;;;;;;5043347;28;20392;-71
2022/10/26 05:37:14;;;;;;;45.40;24.57;;;9.10;99.90;;;;;;5033678;28;20059;-71
2022/10/26 05:39:39;;;;;;;45.47;26.43;;;9.20;99.90;;;;;;5050806;28;20052;-71
2022/10/26 05:42:05;;;;;;;48.53;26.17;;;9.30;99.90;;;;;;5049032;28;20106;-72
2022/10/26 05:44:31;;;;;;;50.87;26.00;;;9.30;99.90;;;;;;5051420;28;20089;-71
2022/10/26 05:46:56;;;;;;;47.73;25.57;;;9.30;99.90;;;;;;5014943;28;20068;-72
2022/10/26 05:49:22;;;;;;;50.90;25.47;;;9.30;99.90;;;;;;5047332;28;20056;-72
2022/10/26 05:51:48;;;;;;;42.30;25.80;;;9.30;99.90;;;;;;5044254;28;20068;-72
2022/10/26 05:54:13;;;;;;;45.13;24.63;;;9.40;99.90;;;;;;5048269;28;20063;-72
2022/10/26 05:56:40;;;;;;;44.53;23.90;;;9.40;99.90;;;;;;5020693;28;20740;-71
2022/10/26 05:59:14;;;;;;;40.77;23.93;;;9.40;99.90;;;;;;5044471;28;20436;-72
2022/10/26 06:01:55;;;;;;;40.83;23.87;;;9.40;99.90;;;;;;5049187;28;20469;-72
2022/10/26 06:04:32;;;;;;;41.63;24.25;;;9.40;99.90;;;;;;5047856;28;20424;-71
2022/10/26 06:06:58;;;;;;;45.47;24.20;;;9.40;99.90;;;;;;5031788;28;20045;-71
2022/10/26 06:09:24;;;;;;;44.33;23.93;;;9.50;99.90;;;;;;5066493;28;20491;-72
2022/10/26 06:11:50;;;;;;;40.00;22.97;;;9.50;99.90;;;;;;5032238;28;20056;-72
2022/10/26 06:14:16;;;;;;;41.23;22.47;;;9.50;99.90;;;;;;5047353;28;20049;-72
2022/10/26 06:16:41;;;;;;;42.33;22.37;;;9.60;99.90;;;;;;5017116;28;20510;-72
2022/10/26 06:19:27;;;;;;;45.25;22.27;;;9.70;99.90;;;;;;5047331;28;20574;-72
2022/10/26 06:22:23;;;;;;;41.58;21.85;;;9.70;99.90;;;;;;5046906;28;20045;-72
2022/10/26 06:25:07;;;;;;;38.75;21.45;;;9.70;99.90;;;;;;5051806;28;20056;-72
2022/10/26 06:27:39;;;;;;;35.40;20.70;;;9.60;99.90;;;;;;5033214;28;20060;-73
2022/10/26 06:30:11;;;;;;;;;;;9.70;99.90;;;;;;5048669;28;20053;-72
2022/10/26 06:32:39;;;;;;;34.00;19.20;;;9.80;99.90;;;;;;5029650;28;19924;-72
2022/10/26 06:35:10;;;;;;;37.38;19.95;;;9.90;99.90;;;;;;5025863;28;20049;-72
2022/10/26 06:37:37;;;;;;;39.45;19.80;;;9.90;99.90;;;;;;5022882;28;20064;-72
2022/10/26 06:40:04;;;;;;;32.10;19.35;;;10.00;99.90;;;;;;5044029;28;20057;-72
2022/10/26 06:42:31;;;;;;;35.22;19.10;;;10.00;99.90;;;;;;5024677;28;20049;-72
2022/10/26 06:44:57;;;;;;;33.42;20.17;;;10.00;99.90;;;;;;5046643;28;20422;-71
2022/10/26 06:47:48;;;;;;;37.22;20.33;;;10.00;99.90;;;;;;5026704;28;20045;-72
2022/10/26 06:50:41;;;;;;;35.28;19.23;;;10.10;99.90;;;;;;5046937;28;20052;-71
2022/10/26 06:53:25;;;;;;;37.38;18.88;;;10.00;99.90;;;;;;5037040;28;20053;-72
2022/10/26 06:55:51;;;;;;;35.20;18.98;;;10.10;99.90;;;;;;5045095;28;20049;-72
2022/10/26 06:58:19;;;;;;;38.05;19.75;;;10.00;99.90;;;;;;5027056;28;20686;-72
2022/10/26 07:00:48;;;;;;;30.60;18.08;;;10.10;99.90;;;;;;5044560;28;21358;-72
2022/10/26 07:03:14;;;;;;;31.65;18.08;;;10.10;99.90;;;;;;5045813;28;20088;-72
2022/10/26 07:05:40;;;;;;;33.25;19.45;;;10.10;99.90;;;;;;5047006;28;20052;-72
2022/10/26 07:08:06;;;;;;;32.42;18.90;;;10.10;99.90;;;;;;5032264;28;20055;-72
2022/10/26 07:10:34;;;;;;;34.10;18.15;;;10.20;99.90;;;;;;5048420;28;20098;-72
2022/10/26 07:13:00;;;;;;;35.67;18.95;;;10.20;99.90;;;;;;5046320;28;20077;-72
2022/10/26 07:15:25;;;;;;;34.80;19.17;;;10.20;99.90;;;;;;5049070;28;20781;-72
2022/10/26 07:17:51;;;;;;;30.35;18.25;;;10.30;99.90;;;;;;5031595;28;20115;-72
2022/10/26 07:20:19;;;;;;;31.25;18.73;;;10.30;99.90;;;;;;5047580;28;20148;-72
2022/10/26 07:22:50;;;;;;;31.02;18.27;;;10.20;99.90;;;;;;5047007;28;20411;-72
2022/10/26 07:25:15;;;;;;;32.08;18.85;;;10.30;99.90;;;;;;5046624;28;20048;-72
2022/10/26 07:27:41;;;;;;;30.98;17.65;;;10.30;99.90;;;;;;5014696;28;20041;-72
2022/10/26 07:30:07;;;;;;;29.23;18.75;;;10.30;99.90;;;;;;5048927;28;20059;-72
2022/10/26 07:32:33;;;;;;;29.60;17.33;;;10.30;99.90;;;;;;5041680;28;20098;-72
2022/10/26 07:34:58;;;;;;;32.42;18.13;;;10.20;99.90;;;;;;5042313;28;20048;-72
2022/10/26 07:37:24;;;;;;;35.10;17.95;;;10.40;99.90;;;;;;5026583;28;20046;-73
2022/10/26 07:39:50;;;;;;;25.02;17.52;;;10.40;99.90;;;;;;5042118;28;20045;-72
2022/10/26 07:42:15;;;;;;;29.63;17.48;;;10.50;99.90;;;;;;5048674;28;20052;-72
2022/10/26 07:44:41;;;;;;;26.13;16.70;;;10.60;99.90;;;;;;5047352;28;20139;-72
2022/10/26 07:47:07;;;;;;;28.08;16.20;;;10.50;99.90;;;;;;5030851;28;20810;-73
2022/10/26 07:49:33;;;;;;;27.10;17.40;;;10.50;99.90;;;;;;5034364;28;20499;-72
2022/10/26 07:51:59;;;;;;;27.95;16.52;;;10.50;99.90;;;;;;5042956;28;20103;-72
2022/10/26 07:54:26;;;;;;;30.80;15.98;;;10.60;99.90;;;;;;5044213;28;20493;-71
2022/10/26 07:56:52;;;;;;;26.00;15.13;;;10.70;99.90;;;;;;5033743;28;20131;-72
2022/10/26 07:59:18;;;;;;;23.98;15.57;;;10.70;99.90;;;;;;5047941;28;20123;-72
2022/10/26 08:01:44;;;;;;;30.02;16.13;;;10.90;99.90;;;;;;5045428;28;20148;-73
2022/10/26 08:04:09;;;;;;;22.95;14.38;;;10.80;99.90;;;;;;5028181;28;20037;-72
2022/10/26 08:06:35;;;;;;;25.05;15.18;;;10.90;99.90;;;;;;5040465;28;20695;-73
2022/10/26 08:09:01;;;;;;;21.23;14.68;;;10.90;99.90;;;;;;5049487;28;20069;-73
2022/10/26 08:11:27;;;;;;;21.52;14.45;;;10.90;99.90;;;;;;5049817;28;20037;-73
2022/10/26 08:13:53;;;;;;;23.88;13.65;;;11.00;99.90;;;;;;5052471;28;20055;-73
2022/10/26 08:16:20;;;;;;;21.98;14.05;;;11.00;99.90;;;;;;5041207;28;20037;-73
2022/10/26 08:18:50;;;;;;;22.98;13.80;;;11.10;99.90;;;;;;5025765;28;20061;-72
2022/10/26 08:21:16;;;;;;;20.35;12.73;;;11.20;99.90;;;;;;5045674;28;20044;-72
2022/10/26 08:23:42;;;;;;;20.33;12.85;;;11.20;99.90;;;;;;5044750;28;20120;-72
2022/10/26 08:26:12;;;;;;;19.20;12.32;;;11.20;99.90;;;;;;5040847;28;20127;-73
2022/10/26 08:28:38;;;;;;;17.88;11.88;;;11.40;99.90;;;;;;5037101;28;20049;-72
2022/10/26 08:31:05;;;;;;;21.30;12.13;;;11.50;99.90;;;;;;5046632;28;20537;-72
2022/10/26 08:33:31;;;;;;;20.85;12.00;;;11.60;99.90;;;;;;5045534;28;20057;-72
2022/10/26 08:36:02;;;;;;;16.90;11.18;;;11.60;99.90;;;;;;5029095;28;20060;-73
2022/10/26 08:38:28;;;;;;;19.27;10.80;;;11.70;99.90;;;;;;5027843;28;20412;-72
2022/10/26 08:40:56;;;;;;;17.45;11.35;;;11.70;99.90;;;;;;5047333;28;20372;-72
2022/10/26 08:43:35;;;;;;;14.43;10.02;;;11.80;99.90;;;;;;5053300;28;20091;-73
2022/10/26 08:46:12;;;;;;;14.82;9.60;;;11.90;99.90;;;;;;5043604;28;20055;-73
2022/10/26 08:48:58;;;;;;;15.10;10.18;;;12.00;99.90;;;;;;5037790;28;20837;-72
2022/10/26 08:51:34;;;;;;;15.43;8.55;;;12.20;99.90;;;;;;5030808;28;20085;-73
2022/10/26 08:54:38;;;;;;;10.38;8.32;;;12.40;99.90;;;;;;5044765;28;20049;-72
2022/10/26 08:57:10;;;;;;;14.25;8.15;;;12.50;99.90;;;;;;5017452;28;20130;-72
2022/10/26 08:59:58;;;;;;;14.10;7.93;;;12.60;99.90;;;;;;5046202;28;20049;-73
2022/10/26 09:02:23;;;;;;;16.27;7.65;;;12.80;99.90;;;;;;5050235;28;20101;-71
2022/10/26 09:04:51;;;;;;;10.57;6.68;;;12.90;99.90;;;;;;5050778;28;20045;-73
2022/10/26 09:07:25;;;;;;;10.55;6.40;;;13.00;99.90;;;;;;5032737;28;20055;-73
2022/10/26 09:10:16;;;;;;;13.38;6.97;;;13.10;99.90;;;;;;5049105;28;20205;-73
2022/10/26 09:12:52;;;;;;;11.60;7.10;;;13.20;99.90;;;;;;5045645;28;20098;-73
2022/10/26 09:15:42;;;;;;;11.88;6.18;;;13.30;99.90;;;;;;5047427;28;20060;-73
2022/10/26 09:18:47;;;;;;;10.95;6.00;;;13.40;99.90;;;;;;5025769;28;20909;-73
2022/10/26 09:21:15;;;;;;;11.95;5.90;;;13.50;99.90;;;;;;5033401;28;20044;-72
2022/10/26 09:23:57;;;;;;;10.82;5.18;;;13.60;99.90;;;;;;5045052;28;20033;-72
2022/10/26 09:26:26;;;;;;;;;;;13.70;99.90;;;;;;5037489;28;20045;-74
2022/10/26 09:28:52;;;;;;;7.57;4.88;;;13.80;99.90;;;;;;5043065;28;19928;-73
2022/10/26 09:31:18;;;;;;;8.90;4.68;;;14.00;99.90;;;;;;5047008;28;20053;-73
2022/10/26 09:33:44;;;;;;;8.05;4.80;;;14.20;99.90;;;;;;5050935;28;20061;-73
2022/10/26 09:36:18;;;;;;;12.98;4.72;;;14.30;99.90;;;;;;5046149;28;20041;-73
2022/10/26 09:39:00;;;;;;;7.00;4.40;;;14.60;99.90;;;;;;5047402;28;20060;-73
2022/10/26 09:42:04;;;;;;;9.27;4.68;;;14.70;99.90;;;;;;5051606;28;20079;-72
2022/10/26 09:44:32;;;;;;;8.80;4.53;;;14.80;99.90;;;;;;5049373;28;20043;-72
2022/10/26 09:47:27;;;;;;;8.82;4.13;;;15.00;99.90;;;;;;5037027;28;20041;-73
2022/10/26 09:49:57;;;;;;;7.93;4.07;;;15.10;99.90;;;;;;5051881;28;20092;-73
2022/10/26 09:52:23;;;;;;;7.80;3.70;;;15.20;99.90;;;;;;5046020;28;20057;-72
2022/10/26 09:54:49;;;;;;;9.43;3.75;;;15.20;99.90;;;;;;5051043;28;20055;-72
2022/10/26 09:57:17;;;;;;;6.30;3.75;;;15.30;99.90;;;;;;5034652;28;20132;-73
2022/10/26 09:59:46;;;;;;;8.50;3.97;;;15.30;99.90;;;;;;5052141;28;20049;-72
2022/10/26 10:02:38;;;;;;;8.63;3.38;;;15.40;99.90;;;;;;5050447;28;20106;-73
2022/10/26 10:05:29;;;;;;;9.02;3.60;;;15.50;99.90;;;;;;5053523;28;20132;-73
2022/10/26 10:08:15;;;;;;;7.32;3.60;;;15.60;99.90;;;;;;5027907;28;20033;-72
2022/10/26 10:10:55;;;;;;;8.15;3.42;;;15.70;99.90;;;;;;5047183;28;20060;-72
2022/10/26 10:13:23;;;;;;;6.45;3.53;;;15.70;99.90;;;;;;5041387;28;20057;-73
2022/10/26 10:16:17;;;;;;;10.77;3.88;;;15.70;99.90;;;;;;5047934;28;20100;-74
2022/10/26 10:18:53;;;;;;;7.45;3.30;;;15.90;99.90;;;;;;5022464;28;20041;-72
2022/10/26 10:21:19;;;;;;;7.50;3.38;;;16.10;99.90;;;;;;5050677;28;20055;-73
2022/10/26 10:23:53;;;;;;;7.18;3.33;;;16.30;99.90;;;;;;5056088;28;20044;-73
2022/10/26 10:26:19;;;;;;;8.88;3.88;;;16.40;99.90;;;;;;5041713;28;20139;-72
2022/10/26 10:28:57;;;;;;;7.70;3.85;;;16.10;99.90;;;;;;5047435;28;20167;-73
2022/10/26 10:31:31;;;;;;;8.15;3.72;;;15.80;99.90;;;;;;5053894;28;20488;-73
2022/10/26 10:33:57;;;;;;;8.93;3.72;;;15.80;99.90;;;;;;5055074;28;20060;-72
2022/10/26 10:36:25;;;;;;;10.40;3.55;;;15.60;99.90;;;;;;5043649;28;20514;-73
2022/10/26 10:38:52;;;;;;;8.80;3.60;;;15.60;99.90;;;;;;5047676;28;20624;-73
2022/10/26 10:41:26;;;;;;;9.02;3.75;;;15.60;99.90;;;;;;5052944;28;20110;-72
2022/10/26 10:44:21;;;;;;;9.98;3.92;;;15.50;99.90;;;;;;5061213;28;20461;-73
2022/10/26 10:46:47;;;;;;;6.32;3.83;;;15.40;99.90;;;;;;5035581;28;20566;-73
2022/10/26 10:49:32;;;;;;;8.00;4.00;;;15.40;99.90;;;;;;5049399;28;20182;-73
2022/10/26 10:51:58;;;;;;;10.85;3.70;;;15.40;99.90;;;;;;5035565;28;20052;-73
2022/10/26 10:54:31;;;;;;;9.85;4.18;;;15.50;99.90;;;;;;5067391;28;20239;-74
2022/10/26 10:57:16;;;;;;;10.45;3.63;;;15.40;99.90;;;;;;5053027;28;20057;-73
2022/10/26 10:59:46;;;;;;;10.10;3.65;;;15.50;99.90;;;;;;5067450;28;20040;-74
2022/10/26 11:02:27;;;;;;;9.95;3.80;;;15.60;99.90;;;;;;5066612;28;20044;-74
2022/10/26 11:05:11;;;;;;;10.07;3.53;;;15.70;99.90;;;;;;5049823;28;20048;-73
2022/10/26 11:07:49;;;;;;;6.53;3.55;;;15.80;99.90;;;;;;5034231;28;20286;-73
2022/10/26 11:10:18;;;;;;;13.10;3.40;;;15.90;99.90;;;;;;5054021;28;20080;-74
2022/10/26 11:12:52;;;;;;;6.78;2.95;;;16.10;99.90;;;;;;5055752;28;20032;-73
2022/10/26 11:15:23;;;;;;;7.05;3.10;;;16.30;99.90;;;;;;5057903;28;20493;-73
2022/10/26 11:17:52;;;;;;;8.90;3.28;;;16.50;99.90;;;;;;5033394;28;20638;-72
2022/10/26 11:20:22;;;;;;;9.85;3.08;;;16.50;99.90;;;;;;5052069;28;20106;-74
2022/10/26 11:22:50;;;;;;;7.85;2.88;;;16.50;99.90;;;;;;5067401;28;20086;-73
2022/10/26 11:25:28;;;;;;;5.38;2.80;;;16.70;99.90;;;;;;5067911;28;20121;-73
2022/10/26 11:28:01;;;;;;;7.28;3.05;;;16.70;99.90;;;;;;5051565;28;20067;-73
2022/10/26 11:30:29;;;;;;;6.03;3.00;;;16.80;99.90;;;;;;5068147;28;20110;-74
2022/10/26 11:33:16;;;;;;;5.57;2.40;;;16.90;99.90;;;;;;5066885;28;20529;-73
2022/10/26 11:35:41;;;;;;;4.95;2.97;;;17.10;99.90;;;;;;5067837;28;20056;-73
2022/10/26 11:38:18;;;;;;;8.75;2.47;;;17.30;99.90;;;;;;5041168;28;20041;-74
2022/10/26 11:41:02;;;;;;;8.82;2.50;;;17.50;99.90;;;;;;5048952;28;20067;-71
2022/10/26 11:43:42;;;;;;;5.70;2.45;;;17.60;99.90;;;;;;5043305;28;20045;-71
2022/10/26 11:46:26;;;;;;;8.13;2.38;;;17.80;99.90;;;;;;5040688;28;20131;-72
2022/10/26 11:49:18;;;;;;;11.43;2.63;;;17.90;99.90;;;;;;5064877;28;20135;-72
2022/10/26 11:51:54;;;;;;;7.97;2.70;;;18.10;99.90;;;;;;5068512;28;20064;-70
2022/10/26 11:54:44;;;;;;;7.28;2.58;;;18.30;99.90;;;;;;5067836;28;20074;-71
2022/10/26 11:57:11;;;;;;;10.30;2.88;;;18.50;99.90;;;;;;5050636;28;20141;-71
2022/10/26 11:59:44;;;;;;;13.55;2.85;;;18.80;99.90;;;;;;5061694;28;20056;-71
2022/10/26 12:02:14;;;;;;;10.00;3.00;;;18.90;99.90;;;;;;5048366;28;20091;-71
2022/10/26 12:04:43;;;;;;;7.50;2.72;;;19.00;99.90;;;;;;5044139;28;20127;-71
2022/10/26 12:07:19;;;;;;;9.00;2.65;;;19.20;99.90;;;;;;5029926;28;20053;-71
2022/10/26 12:09:44;;;;;;;8.38;3.10;;;19.20;99.90;;;;;;5046118;28;20062;-72
2022/10/26 12:12:32;;;;;;;7.40;2.92;;;19.10;99.90;;;;;;5056596;28;20136;-72
2022/10/26 12:15:24;;;;;;;7.72;3.05;;;19.20;99.90;;;;;;5044425;28;20076;-74
2022/10/26 12:18:12;;;;;;;6.93;2.90;;;19.00;99.90;;;;;;5040675;28;20446;-74
2022/10/26 12:20:52;;;;;;;7.40;2.70;;;18.70;99.90;;;;;;5037516;28;20102;-73
2022/10/26 12:23:18;;;;;;;8.68;3.05;;;18.60;99.90;;;;;;5055406;28;20086;-74
2022/10/26 12:25:44;;;;;;;6.63;3.10;;;18.40;99.90;;;;;;5057820;28;20602;-72
2022/10/26 12:28:33;;;;;;;7.25;3.05;;;18.20;99.90;;;;;;5042776;28;20057;-73
2022/10/26 12:31:30;;;;;;;7.13;3.22;;;18.30;99.90;;;;;;5050663;28;20075;-74
2022/10/26 12:33:55;;;;;;;8.38;3.05;;;18.20;99.90;;;;;;5054244;28;20531;-73
2022/10/26 12:36:48;;;;;;;8.13;3.47;;;18.00;99.90;;;;;;5032518;28;20050;-73
2022/10/26 12:39:27;;;;;;;11.15;3.40;;;17.80;99.90;;;;;;5014200;28;20067;-73
2022/10/26 12:42:08;;;;;;;7.65;3.15;;;17.60;99.90;;;;;;5043575;28;20148;-72
2022/10/26 12:44:41;;;;;;;8.65;3.53;;;17.50;99.90;;;;;;5043963;28;20576;-73
2022/10/26 12:47:08;;;;;;;8.88;3.47;;;17.50;99.90;;;;;;5032223;28;20036;-74
2022/10/26 12:50:04;;;;;;;6.97;3.20;;;17.50;99.90;;;;;;5047378;28;20496;-74
2022/10/26 12:53:01;;;;;;;20.63;11.25;;;17.50;99.90;;;;;;5059797;28;20045;-73
2022/10/26 12:55:45;;;;;;;9.52;3.55;;;17.60;99.90;;;;;;5050986;28;20084;-73
2022/10/26 12:58:32;;;;;;;13.68;4.75;;;17.60;99.90;;;;;;5018523;28;20625;-73
2022/10/26 13:00:58;;;;;;;16.13;4.85;;;17.60;99.90;;;;;;5046612;28;20496;-73
2022/10/26 13:03:29;;;;;;;8.48;5.25;;;17.60;99.90;;;;;;5045910;28;20056;-73